createdAt,value
2023-01-04T00:00:03.341Z,937.55
2023-01-04T00:05:03.298Z,937.49
2023-01-04T00:10:03.382Z,937.37
2023-01-04T00:15:03.268Z,937.35
2023-01-04T00:20:03.574Z,937.25
2023-01-04T00:25:03.209Z,937.45
2023-01-04T00:30:03.319Z,937.59
2023-01-04T00:35:03.217Z,937.74
2023-01-04T00:40:03.295Z,937.82
2023-01-04T00:45:03.304Z,937.72
2023-01-04T00:50:03.339Z,937.43
2023-01-04T00:55:03.219Z,937.47
2023-01-04T01:00:08.307Z,937.59
2023-01-04T01:05:03.235Z,937.57
2023-01-04T01:10:03.281Z,937.66
2023-01-04T01:15:03.244Z,937.78
2023-01-04T01:20:03.311Z,937.94
2023-01-04T01:25:03.207Z,937.90
2023-01-04T01:30:03.234Z,937.84
2023-01-04T01:35:03.143Z,937.78
2023-01-04T01:40:03.384Z,937.72
2023-01-04T01:45:03.231Z,937.64
2023-01-04T01:50:03.273Z,937.68
2023-01-04T01:55:03.270Z,937.76
2023-01-04T02:00:03.420Z,937.90
2023-01-04T02:05:08.208Z,938.02
2023-01-04T02:10:03.435Z,938.06
2023-01-04T02:15:03.137Z,937.96
2023-01-04T02:20:03.308Z,937.82
2023-01-04T02:25:03.125Z,937.66
2023-01-04T02:30:03.174Z,937.55
2023-01-04T02:35:03.183Z,937.62
2023-01-04T02:40:03.243Z,937.66
2023-01-04T02:45:03.196Z,937.74
2023-01-04T02:50:05.268Z,937.78
2023-01-04T02:55:03.152Z,937.76
2023-01-04T03:00:03.399Z,937.57
2023-01-04T03:05:03.200Z,937.37
2023-01-04T03:10:03.348Z,937.21
2023-01-04T03:15:03.137Z,937.21
2023-01-04T03:20:08.319Z,937.31
2023-01-04T03:25:03.168Z,937.37
2023-01-04T03:30:03.325Z,937.17
2023-01-04T03:35:03.204Z,937.07
2023-01-04T03:40:03.191Z,937.07
2023-01-04T03:45:09.655Z,937.00
2023-01-04T03:50:03.272Z,936.84
2023-01-04T03:55:03.173Z,936.66
2023-01-04T04:00:03.376Z,936.49
2023-01-04T04:05:03.169Z,936.35
2023-01-04T04:10:04.016Z,936.35
2023-01-04T04:15:03.066Z,936.23
2023-01-04T04:20:03.405Z,936.11
2023-01-04T04:25:03.151Z,935.90
2023-01-04T04:30:03.224Z,935.76
2023-01-04T04:35:03.293Z,935.88
2023-01-04T04:40:03.245Z,935.90
2023-01-04T05:15:03.183Z,936.05
2023-01-04T05:20:03.366Z,936.09
2023-01-04T05:25:03.146Z,936.15
2023-01-04T05:30:03.270Z,936.17
2023-01-04T05:35:03.098Z,936.25
2023-01-04T05:40:03.246Z,936.37
2023-01-04T05:45:03.134Z,936.47
2023-01-04T05:50:03.260Z,936.45
2023-01-04T05:55:03.167Z,936.27
2023-01-04T06:00:03.236Z,936.09
2023-01-04T06:05:03.226Z,936.00
2023-01-04T06:10:03.353Z,936.03
2023-01-04T06:15:04.837Z,936.05
2023-01-04T06:20:03.513Z,936.05
2023-01-04T06:25:03.400Z,936.05
2023-01-04T06:30:03.460Z,936.07
2023-01-04T06:35:03.213Z,936.31
2023-01-04T06:40:03.235Z,936.60
2023-01-04T06:45:03.138Z,936.70
2023-01-04T06:50:03.390Z,936.56
2023-01-04T06:55:03.235Z,936.58
2023-01-04T07:00:03.146Z,936.72
2023-01-04T07:05:03.385Z,936.78
2023-01-04T07:10:09.036Z,936.96
2023-01-04T07:15:03.179Z,936.94
2023-01-04T07:20:03.245Z,936.74
2023-01-04T07:25:03.119Z,936.58
2023-01-04T07:30:03.387Z,936.53
2023-01-04T07:35:03.044Z,936.23
2023-01-04T07:40:03.182Z,936.43
2023-01-04T07:45:03.133Z,936.27
2023-01-04T07:50:03.280Z,935.88
2023-01-04T07:55:03.180Z,935.62
2023-01-04T08:00:03.188Z,935.43
2023-01-04T08:05:03.216Z,935.00
2023-01-04T08:10:03.272Z,934.47
2023-01-04T08:15:03.147Z,934.62
2023-01-04T08:20:03.240Z,934.88
2023-01-04T08:25:03.157Z,935.41
2023-01-04T08:30:03.094Z,935.76
2023-01-04T08:35:03.111Z,936.25
2023-01-04T08:40:03.182Z,936.80
2023-01-04T08:45:03.172Z,936.88
2023-01-04T08:50:09.802Z,936.74
2023-01-04T08:55:06.943Z,937.17
2023-01-04T09:00:03.143Z,937.53
2023-01-04T09:05:03.227Z,937.55
2023-01-04T09:10:03.171Z,937.45
2023-01-04T09:15:03.227Z,937.53
2023-01-04T09:20:03.288Z,937.55
2023-01-04T09:25:03.323Z,937.68
2023-01-04T09:30:03.373Z,937.76
2023-01-04T09:35:03.098Z,937.82
2023-01-04T09:40:03.167Z,937.84
2023-01-04T09:45:22.879Z,937.86
2023-01-04T09:50:03.208Z,937.84
2023-01-04T09:55:36.845Z,937.86
2023-01-04T10:00:03.155Z,937.84
2023-01-04T10:05:03.052Z,937.92
2023-01-04T10:10:03.162Z,937.92
2023-01-04T10:15:03.196Z,938.04
2023-01-04T10:25:03.170Z,938.19
2023-01-04T10:30:03.198Z,938.19
2023-01-04T10:35:08.150Z,938.19
2023-01-04T10:40:03.312Z,938.23
2023-01-04T10:45:06.727Z,938.23
2023-01-04T10:50:03.330Z,938.21
2023-01-04T10:55:03.157Z,938.29
2023-01-04T11:00:03.147Z,938.33
2023-01-04T11:05:02.977Z,938.47
2023-01-04T11:10:03.227Z,938.47
2023-01-04T11:15:03.133Z,938.33
2023-01-04T11:20:03.343Z,938.25
2023-01-04T11:35:03.053Z,938.27
2023-01-04T11:40:03.175Z,938.54
2023-01-04T11:50:03.258Z,938.74
2023-01-04T11:55:03.173Z,938.92
2023-01-04T12:00:03.132Z,938.96
2023-01-04T12:05:03.014Z,939.04
2023-01-04T12:10:03.164Z,939.11
2023-01-04T12:15:03.289Z,939.13
2023-01-04T12:20:04.314Z,939.21
2023-01-04T12:25:03.174Z,939.25
2023-01-04T12:30:03.169Z,939.19
2023-01-04T12:40:03.173Z,939.27
2023-01-04T12:45:03.135Z,939.37
2023-01-04T12:50:03.199Z,939.29
2023-01-04T12:55:03.281Z,939.27
2023-01-04T13:00:03.264Z,939.31
2023-01-04T13:05:45.329Z,939.33
2023-01-04T13:10:03.158Z,939.33
2023-01-04T13:15:03.141Z,939.37
2023-01-04T13:20:03.315Z,939.43
2023-01-04T13:25:03.195Z,939.29
2023-01-04T13:30:03.348Z,939.27
2023-01-04T13:35:05.682Z,939.13
2023-01-04T13:40:03.134Z,939.09
2023-01-04T13:45:19.940Z,939.11
2023-01-04T13:50:03.276Z,939.17
2023-01-04T13:55:03.215Z,939.17
2023-01-04T14:00:03.186Z,939.13
2023-01-04T14:05:03.315Z,939.19
2023-01-04T14:10:03.200Z,939.11
2023-01-04T14:15:03.204Z,939.09
2023-01-04T14:20:03.291Z,939.07
2023-01-04T14:25:10.781Z,939.04
2023-01-04T14:30:03.417Z,939.04
2023-01-04T14:35:03.011Z,938.96
2023-01-04T14:40:03.155Z,938.94
2023-01-04T14:45:03.109Z,938.98
2023-01-04T14:50:03.219Z,939.02
2023-01-04T14:55:03.221Z,938.96
2023-01-04T15:00:03.385Z,938.94
2023-01-04T15:05:03.100Z,938.92
2023-01-04T15:10:03.295Z,938.94
2023-01-04T15:15:03.097Z,938.92
2023-01-04T15:20:03.237Z,938.92
2023-01-04T15:25:03.216Z,938.88
2023-01-04T15:30:04.291Z,938.94
2023-01-04T15:35:03.143Z,938.90
2023-01-04T15:40:04.005Z,938.88
2023-01-04T15:45:03.120Z,938.82
2023-01-04T15:50:03.222Z,938.74
2023-01-04T15:55:03.221Z,938.70
2023-01-04T16:00:03.361Z,938.70
2023-01-04T16:05:03.100Z,938.70
2023-01-04T16:10:03.483Z,938.72
2023-01-04T16:20:03.257Z,938.66
2023-01-04T16:25:11.810Z,938.64
2023-01-04T16:30:03.291Z,938.58
2023-01-04T16:35:03.232Z,938.64
2023-01-04T16:40:07.570Z,938.62
2023-01-04T16:45:03.262Z,938.60
2023-01-04T16:50:03.265Z,938.56
2023-01-04T16:55:03.215Z,938.54
2023-01-04T17:00:03.294Z,938.29
2023-01-04T17:05:03.007Z,938.31
2023-01-04T17:10:03.213Z,938.31
2023-01-04T17:20:03.307Z,938.23
2023-01-04T17:25:03.137Z,938.17
2023-01-04T17:30:03.319Z,938.08
2023-01-04T17:35:03.011Z,938.04
2023-01-04T17:40:03.387Z,938.08
2023-01-04T17:45:03.083Z,938.02
2023-01-04T17:50:03.338Z,937.96
2023-01-04T17:55:03.244Z,937.96
2023-01-04T18:00:03.348Z,937.94
2023-01-04T18:05:03.214Z,937.88
2023-01-04T18:10:03.146Z,937.88
2023-01-04T18:15:03.140Z,937.88
2023-01-04T18:20:03.278Z,937.74
2023-01-04T18:25:03.136Z,937.70
2023-01-04T18:30:03.345Z,937.64
2023-01-04T18:35:03.306Z,937.62
2023-01-04T18:40:03.168Z,937.59
2023-01-04T18:45:03.198Z,937.53
2023-01-04T18:50:03.228Z,937.51
2023-01-04T18:55:03.141Z,937.55
2023-01-04T19:00:03.451Z,937.51
2023-01-04T19:05:03.283Z,937.41
2023-01-04T19:10:03.157Z,937.35
2023-01-04T19:15:03.132Z,937.39
2023-01-04T19:20:03.278Z,937.35
2023-01-04T19:25:03.265Z,937.31
2023-01-04T19:30:03.364Z,937.23
2023-01-04T19:35:03.189Z,937.25
2023-01-04T19:40:03.192Z,937.27
2023-01-04T19:45:04.138Z,937.29
2023-01-04T19:50:03.229Z,937.31
2023-01-04T19:55:03.261Z,937.29
2023-01-04T20:00:03.328Z,937.29
2023-01-04T20:05:03.084Z,937.31
2023-01-04T20:10:03.167Z,937.21
2023-01-04T20:15:03.113Z,937.17
2023-01-04T20:20:03.377Z,937.21
2023-01-04T20:25:08.264Z,937.27
2023-01-04T20:30:03.293Z,937.27
2023-01-04T20:35:03.073Z,937.25
2023-01-04T20:40:03.135Z,937.29
2023-01-04T20:45:03.115Z,937.31
2023-01-04T20:50:03.270Z,937.39
2023-01-04T20:55:11.399Z,937.39
2023-01-04T21:00:03.245Z,937.45
2023-01-04T21:05:03.237Z,937.47
2023-01-04T21:10:03.204Z,937.55
2023-01-04T21:15:03.253Z,937.59
2023-01-04T21:20:03.241Z,937.62
2023-01-04T21:25:03.385Z,937.62
2023-01-04T21:30:03.285Z,937.72
2023-01-04T21:35:03.219Z,937.76
2023-01-04T21:40:03.192Z,937.82
2023-01-04T21:45:03.130Z,937.86
2023-01-04T21:50:03.234Z,937.90
2023-01-04T21:55:04.225Z,937.98
2023-01-04T22:00:03.228Z,938.06
2023-01-04T22:05:03.184Z,938.04
2023-01-04T22:10:03.189Z,938.04
2023-01-04T22:15:03.064Z,938.06
2023-01-04T22:20:03.183Z,938.13
2023-01-04T22:25:03.141Z,938.19
2023-01-04T22:30:03.265Z,938.27
2023-01-04T22:35:03.319Z,938.31
2023-01-04T22:40:03.205Z,938.35
2023-01-04T22:45:06.624Z,938.45
2023-01-04T22:50:03.235Z,938.45
2023-01-04T22:55:03.192Z,938.47
2023-01-04T23:00:03.467Z,938.56
2023-01-04T23:05:03.299Z,938.64
2023-01-04T23:10:03.144Z,938.72
2023-01-04T23:15:03.126Z,938.78
2023-01-04T23:20:06.557Z,938.84
2023-01-04T23:25:03.165Z,938.88
2023-01-04T23:30:03.293Z,938.90
2023-01-04T23:35:03.208Z,938.92
2023-01-04T23:40:03.226Z,938.98
2023-01-04T23:45:03.166Z,939.04
2023-01-04T23:50:03.367Z,939.09
2023-01-04T23:55:03.072Z,939.13
